createdAt,value
2019-05-21T00:01:55.767Z,99440.41
2019-05-21T00:04:28.595Z,99434.77
2019-05-21T00:06:58.696Z,99435.33
2019-05-21T00:09:29.011Z,99430.16
2019-05-21T00:11:59.278Z,99438.69
2019-05-21T00:14:29.535Z,99436.15
2019-05-21T00:16:59.934Z,99433.06
2019-05-21T00:19:30.155Z,99431.01
2019-05-21T00:22:01.932Z,99439.83
2019-05-21T00:24:32.708Z,99443.56
2019-05-21T00:27:03.132Z,99436.33
2019-05-21T00:30:28.179Z,99437.38
2019-05-21T00:33:53.358Z,99434.55
2019-05-21T00:37:01.735Z,99431.93
2019-05-21T00:40:27.191Z,99441.03
2019-05-21T00:42:57.574Z,99432.13
2019-05-21T00:45:29.137Z,99429.85
2019-05-21T00:47:59.805Z,99426.50
2019-05-21T00:50:30.475Z,99427.34
2019-05-21T00:53:00.775Z,99424.59
2019-05-21T00:55:30.996Z,99414.67
2019-05-21T00:58:01.418Z,99422.00
2019-05-21T01:00:31.995Z,99423.04
2019-05-21T01:03:02.313Z,99419.48
2019-05-21T01:05:33.261Z,99422.02
2019-05-21T01:08:03.949Z,99415.77
2019-05-21T01:10:34.220Z,99416.99
2019-05-21T01:13:04.798Z,99411.95
2019-05-21T01:15:35.503Z,99408.38
2019-05-21T01:18:05.852Z,99411.30
2019-05-21T01:20:36.074Z,99415.05
2019-05-21T01:23:06.388Z,99410.27
2019-05-21T01:25:37.332Z,99409.89
2019-05-21T01:28:07.649Z,99402.39
2019-05-21T01:30:38.373Z,99402.01
2019-05-21T01:33:08.688Z,99398.06
2019-05-21T01:35:39.296Z,99402.85
2019-05-21T01:38:09.956Z,99394.50
2019-05-21T01:40:40.256Z,99387.94
2019-05-21T01:43:10.518Z,99396.36
2019-05-21T01:45:41.108Z,99394.66
2019-05-21T01:48:11.759Z,99394.84
2019-05-21T01:50:42.426Z,99395.92
2019-05-21T01:53:12.752Z,99397.00
2019-05-21T01:55:43.331Z,99392.50
2019-05-21T01:58:14.068Z,99395.45
2019-05-21T02:00:44.353Z,99388.78
2019-05-21T02:03:14.624Z,99388.20
2019-05-21T02:05:45.319Z,99395.07
2019-05-21T02:08:15.632Z,99392.91
2019-05-21T02:10:45.849Z,99393.67
2019-05-21T02:13:16.425Z,99397.40
2019-05-21T02:15:46.733Z,99393.46
2019-05-21T02:18:17.037Z,99393.75
2019-05-21T02:20:47.644Z,99380.70
2019-05-21T02:23:19.496Z,99390.27
2019-05-21T02:25:50.129Z,99385.95
2019-05-21T02:28:20.865Z,99390.83
2019-05-21T02:30:56.218Z,99392.73
2019-05-21T02:33:24.058Z,99395.70
2019-05-21T02:35:55.513Z,99392.53
2019-05-21T02:38:26.068Z,99399.66
2019-05-21T02:40:56.400Z,99399.45
2019-05-21T02:43:26.988Z,99401.53
2019-05-21T02:45:57.798Z,99392.89
2019-05-21T02:48:28.224Z,99382.77
2019-05-21T02:50:58.680Z,99380.14
2019-05-21T02:53:28.950Z,99376.20
2019-05-21T02:55:59.236Z,99379.58
2019-05-21T02:58:29.816Z,99380.72
2019-05-21T03:01:08.819Z,99385.67
2019-05-21T03:03:39.189Z,99391.41
2019-05-21T03:06:14.436Z,99390.44
2019-05-21T03:08:42.147Z,99390.91
2019-05-21T03:11:12.782Z,99390.92
2019-05-21T03:13:43.109Z,99396.19
2019-05-21T03:16:13.797Z,99392.13
2019-05-21T03:18:44.464Z,99393.73
2019-05-21T03:21:15.285Z,99392.80
2019-05-21T03:23:45.645Z,99398.63
2019-05-21T03:26:15.837Z,99399.37
2019-05-21T03:28:46.069Z,99401.78
2019-05-21T03:31:16.763Z,99412.92
2019-05-21T03:33:47.144Z,99405.48
2019-05-21T03:36:32.405Z,99398.66
2019-05-21T03:38:50.137Z,99399.46
2019-05-21T03:41:20.808Z,99393.00
2019-05-21T03:43:51.481Z,99400.26
2019-05-21T03:46:22.231Z,99394.77
2019-05-21T03:48:52.582Z,99396.67
2019-05-21T03:51:23.209Z,99394.14
2019-05-21T03:53:54.217Z,99387.11
2019-05-21T03:56:24.874Z,99382.70
2019-05-21T03:58:55.639Z,99382.05
2019-05-21T04:01:26.322Z,99388.63
2019-05-21T04:03:56.996Z,99389.36
2019-05-21T04:06:28.967Z,99397.80
2019-05-21T04:08:59.898Z,99396.23
2019-05-21T04:11:32.230Z,99393.94
2019-05-21T04:14:02.905Z,99397.03
2019-05-21T04:16:40.908Z,99398.15
2019-05-21T04:19:13.282Z,99397.44
2019-05-21T04:21:44.106Z,99395.95
2019-05-21T04:24:15.940Z,99387.62
2019-05-21T04:26:46.883Z,99385.36
2019-05-21T04:29:17.530Z,99395.38
2019-05-21T04:31:48.199Z,99400.86
2019-05-21T04:34:18.517Z,99389.84
2019-05-21T04:36:48.919Z,99383.67
2019-05-21T04:39:20.707Z,99382.67
2019-05-21T04:41:51.262Z,99387.32
2019-05-21T04:44:21.681Z,99386.69
2019-05-21T04:46:52.358Z,99396.75
2019-05-21T04:49:23.160Z,99393.79
2019-05-21T04:51:53.539Z,99386.14
2019-05-21T04:54:24.436Z,99389.09
2019-05-21T04:56:55.079Z,99378.01
2019-05-21T04:59:25.327Z,99371.97
2019-05-21T05:01:55.617Z,99376.53
2019-05-21T05:04:26.229Z,99374.17
2019-05-21T05:06:56.905Z,99377.34
2019-05-21T05:09:27.560Z,99370.97
2019-05-21T05:11:57.895Z,99372.75
2019-05-21T05:14:28.504Z,99374.06
2019-05-21T05:16:58.886Z,99372.88
2019-05-21T05:19:29.524Z,99375.72
2019-05-21T05:22:00.321Z,99381.96
2019-05-21T05:24:31.175Z,99373.32
2019-05-21T05:27:01.471Z,99388.72
2019-05-21T05:29:32.104Z,99383.98
2019-05-21T05:32:02.900Z,99389.38
2019-05-21T05:34:33.633Z,99388.91
2019-05-21T05:37:04.346Z,99393.44
2019-05-21T05:39:34.640Z,99379.25
2019-05-21T05:42:05.294Z,99382.37
2019-05-21T05:44:35.588Z,99376.02
2019-05-21T05:47:05.837Z,99391.05
2019-05-21T05:49:38.063Z,99397.97
2019-05-21T05:52:08.798Z,99398.63
2019-05-21T05:54:39.465Z,99391.44
2019-05-21T05:57:10.130Z,99381.92
2019-05-21T05:59:40.434Z,99384.81
2019-05-21T06:02:10.688Z,99384.63
2019-05-21T06:04:40.905Z,99373.61
2019-05-21T06:07:11.202Z,99369.41
2019-05-21T06:09:41.785Z,99372.41
2019-05-21T06:12:12.231Z,99371.70
2019-05-21T06:14:42.480Z,99371.69
2019-05-21T06:17:14.319Z,99366.27
2019-05-21T06:19:44.983Z,99363.49
2019-05-21T06:22:15.332Z,99369.93
2019-05-21T06:24:45.944Z,99376.28
2019-05-21T06:27:16.621Z,99366.72
2019-05-21T06:29:46.947Z,99371.48
2019-05-21T06:32:17.515Z,99377.50
2019-05-21T06:34:48.781Z,99383.69
2019-05-21T06:37:19.837Z,99380.17
2019-05-21T06:39:50.218Z,99379.59
2019-05-21T06:42:20.802Z,99369.58
2019-05-21T06:44:51.105Z,99373.81
2019-05-21T06:47:21.668Z,99376.36
2019-05-21T06:49:51.996Z,99384.02
2019-05-21T06:52:22.228Z,99370.95
2019-05-21T06:54:53.087Z,99381.20
2019-05-21T06:57:23.846Z,99377.31
2019-05-21T06:59:54.550Z,99370.47
2019-05-21T07:02:25.254Z,99368.67
2019-05-21T09:17:58.557Z,99326.06
2019-05-21T09:20:29.133Z,99330.44
2019-05-21T09:22:59.787Z,99323.19
2019-05-21T09:25:30.649Z,99324.05
2019-05-21T09:28:01.234Z,99332.61
2019-05-21T09:30:31.871Z,99325.45
2019-05-21T09:33:02.583Z,99327.70
2019-05-21T09:35:33.240Z,99322.76
2019-05-21T09:38:03.725Z,99322.77
2019-05-21T09:40:34.704Z,99321.42
2019-05-21T09:43:05.015Z,99320.35
2019-05-21T09:45:35.233Z,99319.06
2019-05-21T09:48:05.565Z,99322.53
2019-05-21T09:50:36.146Z,99318.69
2019-05-21T09:53:06.718Z,99315.58
2019-05-21T09:55:37.297Z,99301.89
2019-05-21T09:58:10.711Z,99309.86
2019-05-21T10:00:55.528Z,99311.82
2019-05-21T10:03:27.802Z,99305.82
2019-05-21T10:05:58.540Z,99321.07
2019-05-21T10:08:29.167Z,99303.34
2019-05-21T10:10:59.445Z,99286.38
2019-05-21T10:13:29.687Z,99281.56
2019-05-21T10:16:01.484Z,99275.17
2019-05-21T10:18:31.813Z,99273.59
2019-05-21T10:21:02.385Z,99278.53
2019-05-21T10:23:32.692Z,99271.49
2019-05-21T10:26:03.405Z,99278.53
2019-05-21T10:28:33.690Z,99277.67
2019-05-21T10:31:04.663Z,99269.24
2019-05-21T10:33:35.089Z,99265.44
2019-05-21T10:36:06.227Z,99259.22
2019-05-21T10:38:37.164Z,99248.89
2019-05-21T10:41:07.545Z,99235.58
2019-05-21T10:43:37.769Z,99245.06
2019-05-21T10:46:08.548Z,99236.39
2019-05-21T10:48:40.479Z,99223.19
2019-05-21T10:51:11.306Z,99215.45
2019-05-21T10:53:41.951Z,99215.05
2019-05-21T10:56:12.668Z,99220.22
2019-05-21T10:58:43.321Z,99212.67
2019-05-21T11:01:24.989Z,99218.33
2019-05-21T11:04:15.333Z,99207.95
2019-05-21T11:06:48.987Z,99207.58
2019-05-21T11:09:21.179Z,99200.82
2019-05-21T11:11:51.864Z,99207.72
2019-05-21T11:14:23.008Z,99201.02
2019-05-21T11:16:53.320Z,99200.14
2019-05-21T11:19:23.551Z,99188.14
2019-05-21T11:21:53.794Z,99195.91
2019-05-21T11:24:24.001Z,99183.46
2019-05-21T11:26:54.251Z,99178.87
2019-05-21T11:29:25.056Z,99196.97
2019-05-21T11:31:57.668Z,99190.26
2019-05-21T11:34:28.439Z,99186.28
2019-05-21T11:36:58.751Z,99182.69
2019-05-21T11:39:29.336Z,99176.68
2019-05-21T11:42:00.332Z,99154.41
2019-05-21T11:44:30.733Z,99143.38
2019-05-21T11:47:01.361Z,99145.75
2019-05-21T11:49:32.008Z,99140.67
2019-05-21T11:52:02.331Z,99138.69
2019-05-21T11:54:33.820Z,99151.92
2019-05-21T11:57:04.046Z,99154.04
2019-05-21T11:59:34.726Z,99149.55
2019-05-21T12:02:06.745Z,99147.37
2019-05-21T12:04:36.971Z,99141.70
2019-05-21T12:07:07.259Z,99146.70
2019-05-21T12:09:37.560Z,99144.70
2019-05-21T12:12:08.075Z,99151.22
2019-05-21T12:14:38.747Z,99155.40
2019-05-21T12:18:26.368Z,99132.80
2019-05-21T12:20:56.804Z,99133.32
2019-05-21T12:23:27.041Z,99116.09
2019-05-21T12:25:58.256Z,99136.76
2019-05-21T12:28:28.870Z,99139.36
2019-05-21T12:34:39.565Z,99149.52
2019-05-21T12:37:10.129Z,99140.84
2019-05-21T12:39:40.353Z,99138.37
2019-05-21T12:42:10.667Z,99121.10
2019-05-21T12:44:40.885Z,99123.50
2019-05-21T12:47:11.608Z,99122.36
2019-05-21T12:49:44.145Z,99125.72
2019-05-21T12:52:14.466Z,99115.91
2019-05-21T12:54:44.681Z,99108.20
2019-05-21T12:57:17.044Z,99095.81
2019-05-21T12:59:47.779Z,99076.64
2019-05-21T13:02:18.877Z,99083.62
2019-05-21T13:04:49.559Z,99082.77
2019-05-21T13:07:19.897Z,99069.61
2019-05-21T13:09:50.577Z,99076.64
2019-05-21T13:12:21.078Z,99076.16
2019-05-21T13:14:51.542Z,99072.64
2019-05-21T13:17:21.820Z,99074.42
2019-05-21T13:19:52.043Z,99078.83
2019-05-21T13:22:22.731Z,99071.71
2019-05-21T13:24:54.598Z,99070.55
2019-05-21T13:27:24.938Z,99060.83
2019-05-21T13:29:55.171Z,99051.39
2019-05-21T13:32:25.399Z,99057.33
2019-05-21T13:34:55.643Z,99058.66
2019-05-21T13:37:26.205Z,99060.17
2019-05-21T13:39:56.704Z,99070.06
2019-05-21T13:42:27.077Z,99075.94
2019-05-21T13:44:57.458Z,99068.66
2019-05-21T13:47:27.677Z,99072.23
2019-05-21T13:49:57.929Z,99072.20
2019-05-21T13:52:28.293Z,99086.12
2019-05-21T13:54:58.539Z,99061.25
2019-05-21T13:57:29.293Z,99071.55
2019-05-21T13:59:59.593Z,99073.22
2019-05-21T14:02:30.455Z,99078.16
2019-05-21T14:05:01.043Z,99080.33
2019-05-21T14:07:31.508Z,99070.17
2019-05-21T14:10:14.161Z,99052.89
2019-05-21T14:12:33.881Z,99069.50
2019-05-21T14:15:05.813Z,99061.23
2019-05-21T14:17:36.440Z,99068.27
2019-05-21T14:20:08.427Z,99064.75
2019-05-21T14:22:39.401Z,99068.62
2019-05-21T14:25:10.162Z,99077.81
2019-05-21T14:27:44.857Z,99067.12
2019-05-21T14:30:14.129Z,99066.26
2019-05-21T14:32:44.470Z,99059.86
2019-05-21T14:35:17.169Z,99058.91
2019-05-21T14:37:47.529Z,99057.10
2019-05-21T14:40:31.054Z,99058.72
2019-05-21T14:43:00.137Z,99063.18
2019-05-21T14:45:23.647Z,99063.18
2019-05-21T14:47:54.573Z,99060.25
2019-05-21T14:50:24.892Z,99061.30
2019-05-21T14:52:55.470Z,99056.75
2019-05-21T14:55:25.762Z,99051.94
2019-05-21T14:57:58.964Z,99056.97
2019-05-21T15:00:31.413Z,99057.94
2019-05-21T15:03:01.653Z,99045.02
2019-05-21T15:05:32.924Z,99036.84
2019-05-21T15:08:05.045Z,99033.27
2019-05-21T15:10:48.076Z,99030.19
2019-05-21T15:13:07.443Z,99031.98
2019-05-21T15:15:37.797Z,99030.53
2019-05-21T15:18:09.227Z,99027.01
2019-05-21T15:20:57.573Z,99021.33
2019-05-21T15:23:28.417Z,99033.20
2019-05-21T15:25:58.723Z,99034.91
2019-05-21T15:28:30.695Z,99028.27
2019-05-21T15:31:01.375Z,99032.87
2019-05-21T15:33:31.709Z,99045.12
2019-05-21T15:36:02.415Z,99044.29
2019-05-21T15:38:48.677Z,99047.84
2019-05-21T15:41:11.740Z,99049.08
2019-05-21T15:43:37.501Z,99046.97
2019-05-21T15:46:07.839Z,99050.45
2019-05-21T15:48:38.104Z,99050.33
2019-05-21T15:51:08.990Z,99060.86
2019-05-21T15:53:39.357Z,99053.75
2019-05-21T15:56:09.693Z,99056.02
2019-05-21T15:58:40.245Z,99055.81
2019-05-21T16:01:10.461Z,99061.78
2019-05-21T16:03:40.816Z,99068.69
2019-05-21T16:06:13.408Z,99061.16
2019-05-21T16:08:45.648Z,99067.31
2019-05-21T16:11:27.940Z,99084.59
2019-05-21T16:13:48.206Z,99086.56
2019-05-21T16:16:19.019Z,99090.04
2019-05-21T16:18:49.912Z,99090.56
2019-05-21T16:21:22.005Z,99096.39
2019-05-21T16:23:53.177Z,99096.62
2019-05-21T16:26:24.032Z,99105.86
2019-05-21T16:28:54.318Z,99096.14
2019-05-21T16:31:24.572Z,99103.07
2019-05-21T16:33:56.542Z,99094.70
2019-05-21T16:36:26.768Z,99095.89
2019-05-21T16:38:57.197Z,99099.11
2019-05-21T16:41:41.939Z,99100.16
2019-05-21T16:43:59.654Z,99101.81
2019-05-21T16:46:30.210Z,99099.78
2019-05-21T16:49:00.505Z,99101.73
2019-05-21T16:51:31.077Z,99092.77
2019-05-21T16:54:02.038Z,99090.44
2019-05-21T16:56:32.905Z,99086.45
2019-05-21T16:59:03.238Z,99083.16
2019-05-21T17:01:34.059Z,99084.59
2019-05-21T17:04:04.638Z,99085.38
2019-05-21T17:06:35.188Z,99092.63
2019-05-21T17:09:08.815Z,99090.91
2019-05-21T17:11:41.318Z,99089.36
2019-05-21T17:14:11.674Z,99090.25
2019-05-21T17:16:42.245Z,99091.04
2019-05-21T17:19:12.987Z,99084.59
2019-05-21T17:21:43.266Z,99090.03
2019-05-21T17:24:13.612Z,99092.81
2019-05-21T17:26:44.508Z,99085.22
2019-05-21T17:29:14.876Z,99082.62
2019-05-21T17:31:45.560Z,99096.94
2019-05-21T17:34:17.505Z,99099.10
2019-05-21T17:36:48.702Z,99108.02
2019-05-21T17:39:19.272Z,99114.91
2019-05-21T17:41:49.508Z,99122.47
2019-05-21T17:44:19.734Z,99115.00
2019-05-21T17:46:50.113Z,99117.11
2019-05-21T17:49:20.853Z,99116.80
2019-05-21T17:51:53.815Z,99120.28
2019-05-21T17:54:24.166Z,99118.90
2019-05-21T17:56:54.454Z,99124.14
2019-05-21T17:59:24.941Z,99121.12
2019-05-21T18:01:56.363Z,99114.20
2019-05-21T18:04:27.137Z,99119.66
2019-05-21T18:06:57.718Z,99127.82
2019-05-21T18:09:28.667Z,99132.51
2019-05-21T18:11:59.049Z,99136.86
2019-05-21T18:14:30.479Z,99137.74
2019-05-21T18:17:01.113Z,99139.73
2019-05-21T18:19:33.770Z,99142.38
2019-05-21T18:22:06.341Z,99142.75
2019-05-21T18:24:37.191Z,99146.50
2019-05-21T18:27:07.801Z,99141.09
2019-05-21T18:29:38.553Z,99136.89
2019-05-21T18:32:08.857Z,99130.12
2019-05-21T18:34:39.167Z,99141.66
2019-05-21T18:37:09.382Z,99151.46
2019-05-21T18:39:40.451Z,99155.41
2019-05-21T18:42:21.724Z,99151.39
2019-05-21T18:44:45.020Z,99159.58
2019-05-21T18:47:15.384Z,99167.11
2019-05-21T18:49:45.997Z,99170.14
2019-05-21T18:52:16.706Z,99169.89
2019-05-21T18:54:47.984Z,99169.83
2019-05-21T18:57:19.143Z,99179.55
2019-05-21T18:59:50.300Z,99179.29
2019-05-21T19:02:21.199Z,99180.23
2019-05-21T19:04:51.511Z,99189.73
2019-05-21T19:07:22.833Z,99189.98
2019-05-21T19:09:54.748Z,99196.14
2019-05-21T19:12:37.469Z,99204.34
2019-05-21T19:14:57.755Z,99201.33
2019-05-21T19:17:35.554Z,99218.41
2019-05-21T19:20:02.739Z,99221.62
2019-05-21T19:22:35.409Z,99211.35
2019-05-21T19:25:08.998Z,99219.42
2019-05-21T19:27:41.002Z,99221.31
2019-05-21T19:30:12.286Z,99237.98
2019-05-21T19:32:42.927Z,99237.59
2019-05-21T19:35:15.656Z,99237.33
2019-05-21T19:37:48.229Z,99235.10
2019-05-21T19:40:19.464Z,99232.47
2019-05-21T19:42:55.129Z,99232.11
2019-05-21T19:45:22.551Z,99240.44
2019-05-21T19:47:53.239Z,99234.33
2019-05-21T19:50:23.602Z,99241.05
2019-05-21T19:52:56.772Z,99237.67
2019-05-21T19:55:27.978Z,99237.30
2019-05-21T19:57:58.755Z,99223.13
2019-05-21T20:00:31.388Z,99224.55
2019-05-21T20:03:03.218Z,99228.34
2019-05-21T20:05:35.395Z,99224.02
2019-05-21T20:08:06.312Z,99212.95
2019-05-21T20:10:37.814Z,99216.97
2019-05-21T20:13:08.596Z,99221.33
2019-05-21T20:15:39.267Z,99218.52
2019-05-21T20:18:10.354Z,99219.29
2019-05-21T20:20:42.418Z,99233.28
2019-05-21T20:23:13.862Z,99233.11
2019-05-21T20:25:55.880Z,99227.25
2019-05-21T20:28:20.671Z,99229.33
2019-05-21T20:30:50.099Z,99230.72
2019-05-21T20:33:21.210Z,99220.30
2019-05-21T20:35:54.126Z,99214.86
2019-05-21T20:38:25.610Z,99224.25
2019-05-21T20:40:57.501Z,99230.55
2019-05-21T20:43:28.254Z,99230.46
2019-05-21T20:45:59.472Z,99231.18
2019-05-21T20:48:37.555Z,99234.31
2019-05-21T20:51:09.043Z,99235.50
2019-05-21T20:53:39.615Z,99230.05
2019-05-21T20:56:11.430Z,99226.30
2019-05-21T20:58:41.795Z,99224.99
2019-05-21T21:01:12.476Z,99222.77
2019-05-21T21:03:45.084Z,99225.37
2019-05-21T21:06:15.884Z,99226.52
2019-05-21T21:08:46.562Z,99228.30
2019-05-21T21:11:17.453Z,99214.60
2019-05-21T21:13:48.504Z,99227.34
2019-05-21T21:16:19.627Z,99219.38
2019-05-21T21:18:50.393Z,99218.98
2019-05-21T21:21:22.315Z,99216.17
2019-05-21T21:23:56.601Z,99211.32
2019-05-21T21:26:28.177Z,99205.98
2019-05-21T21:28:58.911Z,99215.08
2019-05-21T21:31:30.698Z,99208.52
2019-05-21T21:34:01.332Z,99200.33
2019-05-21T21:36:32.781Z,99199.18
2019-05-21T21:39:05.439Z,99215.41
2019-05-21T21:41:36.753Z,99211.27
2019-05-21T21:44:07.094Z,99204.89
2019-05-21T21:46:37.622Z,99199.73
2019-05-21T21:49:09.302Z,99207.34
2019-05-21T21:51:40.572Z,99204.53
2019-05-21T21:54:12.309Z,99205.11
2019-05-21T21:56:43.110Z,99198.55
2019-05-21T21:59:13.332Z,99200.99
2019-05-21T22:01:50.284Z,99194.34
2019-05-21T22:04:26.126Z,99202.31
2019-05-21T22:06:56.802Z,99196.88
2019-05-21T22:09:29.173Z,99203.23
2019-05-21T22:12:00.291Z,99203.25
2019-05-21T22:14:32.829Z,99201.28
2019-05-21T22:17:04.363Z,99190.48
2019-05-21T22:19:36.368Z,99200.70
2019-05-21T22:22:07.353Z,99196.30
2019-05-21T22:24:37.995Z,99198.92
2019-05-21T22:27:08.854Z,99198.74
2019-05-21T22:29:41.170Z,99188.23
2019-05-21T22:32:11.933Z,99191.52
2019-05-21T22:34:42.600Z,99197.05
2019-05-21T22:37:12.899Z,99191.59
2019-05-21T22:39:44.259Z,99186.53
2019-05-21T22:42:16.190Z,99188.95
2019-05-21T22:44:47.119Z,99181.47
2019-05-21T22:47:17.310Z,99177.53
2019-05-21T22:49:47.797Z,99173.02
2019-05-21T22:52:18.011Z,99174.91
2019-05-21T22:54:48.621Z,99188.18
2019-05-21T22:57:18.927Z,99176.19
2019-05-21T22:59:49.504Z,99178.14
2019-05-21T23:02:22.162Z,99175.05
2019-05-21T23:04:52.491Z,99178.79
2019-05-21T23:07:23.177Z,99178.97
2019-05-21T23:09:54.505Z,99168.86
2019-05-21T23:12:24.814Z,99170.52
2019-05-21T23:14:55.515Z,99174.92
2019-05-21T23:17:27.882Z,99169.58
2019-05-21T23:20:16.979Z,99177.45
2019-05-21T23:22:51.439Z,99179.52
2019-05-21T23:25:22.267Z,99176.25
2019-05-21T23:27:53.049Z,99175.52
2019-05-21T23:30:23.757Z,99179.05
2019-05-21T23:32:54.014Z,99187.20
2019-05-21T23:35:25.758Z,99188.52
2019-05-21T23:37:56.833Z,99196.30
2019-05-21T23:40:27.979Z,99188.69
2019-05-21T23:42:58.725Z,99183.22
2019-05-21T23:45:29.647Z,99175.73
2019-05-21T23:48:00.749Z,99183.16
2019-05-21T23:50:31.963Z,99181.76
2019-05-21T23:53:03.934Z,99182.52
2019-05-21T23:55:35.363Z,99176.58
2019-05-21T23:58:08.139Z,99185.20
